Time;durP1;ratioP1;P1;durP2;ratioP2;P2;SDS_P1;SDS_P2;PMS_P1;PMS_P2;Temp;Humidity;BMP_temperature;BMP_pressure;BME280_temperature;BME280_humidity;BME280_pressure;Samples;Min_cycle;Max_cycle;Signal;HPM_P1;HPM_P2
2021/12/19 00:00:21;;;;;;;37.88;13.82;;;;;;;11.76;47.71;102956.69;4429564;32;20104;-69
2021/12/19 00:03:05;;;;;;;42.90;14.07;;;;;;;11.80;47.79;102958.31;4429467;32;20133;-69
2021/12/19 00:11:03;;;;;;;49.85;15.18;;;;;;;11.83;48.00;102951.06;4418714;32;20064;-69
2021/12/19 00:13:28;;;;;;;57.42;15.13;;;;;;;11.67;48.10;102944.94;4428175;32;20062;-69
2021/12/19 00:15:56;;;;;;;34.80;13.88;;;;;;;11.65;48.19;102948.16;4427290;32;20042;-69
2021/12/19 00:18:22;;;;;;;32.78;12.27;;;;;;;11.74;48.10;102945.78;4430350;32;20074;-69
2021/12/19 00:20:47;;;;;;;33.28;12.93;;;;;;;11.51;47.98;102942.37;4427514;32;20094;-69
2021/12/19 00:23:14;;;;;;;36.90;12.50;;;;;;;11.43;48.03;102937.06;4429345;32;20057;-69
2021/12/19 00:25:39;;;;;;;26.55;10.38;;;;;;;11.41;48.01;102940.28;4429554;32;20081;-69
2021/12/19 00:28:05;;;;;;;27.83;10.73;;;;;;;11.24;48.07;102934.50;4425021;32;20060;-69
2021/12/19 00:30:32;;;;;;;21.20;9.95;;;;;;;11.23;47.66;102930.88;4417919;32;20038;-69
2021/12/19 00:32:58;;;;;;;19.98;9.00;;;;;;;11.27;47.63;102933.72;4420041;32;20048;-69
2021/12/19 00:35:24;;;;;;;17.67;8.32;;;;;;;11.21;47.26;102935.28;4422649;32;20026;-69
2021/12/19 00:37:51;;;;;;;19.90;8.80;;;;;;;11.16;47.44;102941.28;4416671;32;20743;-68
2021/12/19 00:40:17;;;;;;;18.95;9.18;;;;;;;11.30;46.99;102941.41;4422262;32;20410;-68
2021/12/19 00:42:50;;;;;;;19.70;9.27;;;;;;;11.22;46.94;102942.53;4419026;32;20070;-68
2021/12/19 00:45:26;;;;;;;22.58;9.43;;;;;;;11.17;47.21;102943.69;4418134;32;20041;-68
2021/12/19 00:47:52;;;;;;;21.35;9.43;;;;;;;11.17;47.51;102931.63;4417590;32;20034;-68
2021/12/19 00:50:20;;;;;;;18.95;9.20;;;;;;;11.08;47.73;102934.75;4420275;32;20444;-68
2021/12/19 00:52:46;;;;;;;18.77;8.95;;;;;;;11.07;47.62;102937.97;4418685;32;20027;-68
2021/12/19 00:55:15;;;;;;;19.50;9.38;;;;;;;11.08;47.69;102936.78;4419839;32;20033;-68
2021/12/19 00:57:41;;;;;;;19.65;9.90;;;;;;;11.28;47.55;102933.34;4415482;32;20268;-68
2021/12/19 01:00:09;;;;;;;33.15;11.93;;;;;;;11.10;47.72;102931.56;4411020;32;20451;-68
2021/12/19 01:02:35;;;;;;;30.55;11.30;;;;;;;11.30;47.65;102932.94;4419633;32;20096;-68
2021/12/19 01:05:03;;;;;;;28.02;11.93;;;;;;;11.17;47.88;102923.19;4418882;32;20370;-68
2021/12/19 01:07:29;;;;;;;31.40;11.80;;;;;;;11.25;47.76;102930.47;4416981;32;20182;-68
2021/12/19 01:09:55;;;;;;;38.50;14.38;;;;;;;11.14;48.39;102923.97;4417866;32;20033;-69
2021/12/19 01:12:23;;;;;;;34.83;13.98;;;;;;;11.36;48.46;102923.75;4415493;32;20135;-68
2021/12/19 01:14:49;;;;;;;38.28;14.23;;;;;;;11.65;48.10;102927.59;4413088;32;20062;-68
2021/12/19 01:17:15;;;;;;;43.03;14.23;;;;;;;11.79;47.72;102927.69;4417686;32;20069;-68
2021/12/19 01:19:41;;;;;;;62.85;15.43;;;;;;;11.91;47.62;102918.88;4418639;32;20046;-69
2021/12/19 01:22:07;;;;;;;74.25;16.50;;;;;;;12.13;47.43;102919.78;4418891;32;20060;-69
2021/12/19 01:24:33;;;;;;;106.12;18.80;;;;;;;12.10;47.32;102915.75;4416310;32;20073;-69
2021/12/19 01:26:59;;;;;;;84.30;17.58;;;;;;;12.26;47.73;102918.22;4419484;32;20568;-69
2021/12/19 01:29:24;;;;;;;84.93;17.65;;;;;;;12.30;47.77;102927.53;4417465;32;20038;-68
2021/12/19 01:31:50;;;;;;;106.43;17.90;;;;;;;12.46;47.53;102917.50;4417800;32;20446;-69
2021/12/19 01:34:16;;;;;;;89.07;16.12;;;;;;;12.54;47.29;102916.28;4416004;32;20053;-68
2021/12/19 01:36:43;;;;;;;108.65;15.98;;;;;;;12.65;46.89;102913.50;4421313;32;20122;-69
2021/12/19 01:39:11;;;;;;;93.93;17.48;;;;;;;12.97;46.33;102912.31;4419146;32;20546;-68
2021/12/19 01:41:48;;;;;;;149.05;17.90;;;;;;;12.85;46.32;102909.88;4416319;32;20077;-69
2021/12/19 01:44:14;;;;;;;106.47;16.52;;;;;;;13.08;46.30;102907.53;4419366;32;20046;-68
2021/12/19 01:46:40;;;;;;;70.12;17.42;;;;;;;12.84;46.47;102908.28;4417910;32;20140;-68
2021/12/19 01:49:06;;;;;;;207.87;18.95;;;;;;;12.82;46.33;102907.87;4417584;32;20076;-68
2021/12/19 01:51:32;;;;;;;150.07;17.87;;;;;;;12.75;46.12;102907.87;4417836;32;20077;-68
2021/12/19 01:53:58;;;;;;;162.50;17.30;;;;;;;12.70;46.03;102911.06;4415704;32;20033;-68
2021/12/19 01:56:24;;;;;;;116.22;16.42;;;;;;;12.61;45.65;102912.69;4417509;32;20014;-68
2021/12/19 01:58:49;;;;;;;100.45;16.98;;;;;;;12.74;45.77;102906.25;4421396;32;20073;-68
2021/12/19 02:01:15;;;;;;;92.97;17.23;;;;;;;12.53;46.54;102908.22;4417531;32;20034;-68
2021/12/19 02:03:41;;;;;;;88.65;17.65;;;;;;;12.55;46.21;102911.47;4414996;32;20462;-68
2021/12/19 02:06:07;;;;;;;128.77;18.30;;;;;;;12.61;46.75;102905.00;4415477;32;20833;-68
2021/12/19 02:08:32;;;;;;;154.98;18.80;;;;;;;12.56;46.35;102911.06;4419006;32;20183;-68
2021/12/19 02:10:58;;;;;;;141.73;17.70;;;;;;;12.51;46.72;102907.78;4418598;32;20006;-68
2021/12/19 02:13:24;;;;;;;158.18;17.70;;;;;;;12.48;46.61;102902.94;4421578;32;20349;-68
2021/12/19 02:15:50;;;;;;;155.05;18.00;;;;;;;12.41;46.14;102900.94;4419486;32;20042;-68
2021/12/19 02:18:19;;;;;;;158.35;16.70;;;;;;;12.45;46.16;102904.56;4414934;32;20037;-68
2021/12/19 02:20:56;;;;;;;137.00;17.70;;;;;;;12.65;46.08;102905.84;4417854;32;20547;-68
2021/12/19 02:23:26;;;;;;;107.10;15.00;;;;;;;12.70;46.17;102910.28;4418658;32;20052;-69
2021/12/19 02:25:54;;;;;;;71.05;14.98;;;;;;;12.88;46.05;102899.78;4408638;32;20060;-68
2021/12/19 02:28:21;;;;;;;125.70;16.75;;;;;;;12.70;46.18;102908.25;4418375;32;20414;-68
2021/12/19 02:30:48;;;;;;;124.28;16.40;;;;;;;12.61;46.11;102905.00;4418304;32;20061;-68
2021/12/19 02:33:18;;;;;;;94.43;15.18;;;;;;;12.61;46.03;102905.00;4415408;32;20152;-68
2021/12/19 02:35:50;;;;;;;91.15;14.05;;;;;;;12.67;45.93;102908.25;4418404;32;20153;-68
2021/12/19 02:49:15;;;;;;;;;;;;;;;12.86;44.91;102897.37;4457351;32;20099;-69
2021/12/19 02:51:41;;;;;;;108.10;14.02;;;;;;;12.71;45.52;102890.09;4456680;32;19951;-69
2021/12/19 02:54:07;;;;;;;102.22;14.73;;;;;;;12.26;46.06;102887.97;4455839;32;20036;-69
2021/12/19 02:56:32;;;;;;;67.82;12.80;;;;;;;12.09;45.79;102894.37;4455538;32;20092;-69
2021/12/19 02:58:59;;;;;;;121.03;15.73;;;;;;;12.17;46.70;102895.19;4460006;32;20152;-69
2021/12/19 03:01:25;;;;;;;75.65;15.52;;;;;;;12.20;46.66;102891.56;4454665;32;20072;-69
2021/12/19 03:03:51;;;;;;;108.35;15.38;;;;;;;12.27;46.27;102889.56;4455997;32;20072;-68
2021/12/19 03:06:17;;;;;;;115.12;14.87;;;;;;;12.11;46.38;102883.47;4454912;32;20072;-69
2021/12/19 03:08:46;;;;;;;95.72;14.25;;;;;;;12.10;47.06;102887.53;4457220;32;20134;-70
2021/12/19 03:19:33;;;;;;;135.98;14.57;;;;;;;12.09;46.17;102860.50;4453080;32;20353;-69
2021/12/19 03:22:01;;;;;;;62.80;13.38;;;;;;;12.00;46.27;102865.72;4454707;32;20068;-69
2021/12/19 03:24:27;;;;;;;69.70;12.15;;;;;;;12.25;46.40;102862.97;4458053;32;20125;-69
2021/12/19 03:26:52;;;;;;;143.68;14.63;;;;;;;12.18;46.16;102858.09;4454662;32;20410;-69
2021/12/19 03:29:18;;;;;;;111.95;13.70;;;;;;;12.08;45.92;102858.88;4455341;32;20144;-69
2021/12/19 03:31:47;;;;;;;98.50;12.85;;;;;;;12.13;45.40;102855.69;4459265;32;20061;-69
2021/12/19 03:34:13;;;;;;;124.53;13.88;;;;;;;12.16;45.35;102859.72;4451851;32;20540;-69
2021/12/19 03:36:39;;;;;;;151.57;15.00;;;;;;;12.00;45.63;102854.44;4451900;32;20033;-69
2021/12/19 03:39:14;;;;;;;102.82;13.43;;;;;;;11.87;45.67;102855.97;4455865;32;20037;-69
2021/12/19 03:41:42;;;;;;;131.40;15.90;;;;;;;11.94;45.78;102859.63;4452160;32;20028;-69
2021/12/19 03:44:08;;;;;;;168.45;16.15;;;;;;;11.92;46.30;102847.13;4460179;32;20447;-69
2021/12/19 03:46:35;;;;;;;105.95;12.20;;;;;;;11.89;45.83;102845.91;4452147;32;20080;-69
2021/12/19 03:49:00;;;;;;;106.18;13.38;;;;;;;11.79;46.03;102859.97;4454191;32;20077;-69
2021/12/19 03:51:29;;;;;;;115.03;14.82;;;;;;;11.64;46.27;102855.47;4462010;32;20367;-69
2021/12/19 03:53:55;;;;;;;115.28;14.65;;;;;;;11.57;46.03;102850.53;4454107;32;20044;-68
2021/12/19 03:56:21;;;;;;;178.40;16.73;;;;;;;11.67;46.19;102846.22;4449187;32;20037;-68
2021/12/19 03:58:51;;;;;;;109.53;14.35;;;;;;;11.66;46.19;102847.44;4446231;32;20441;-69
2021/12/19 04:01:17;;;;;;;123.32;14.00;;;;;;;11.70;46.12;102848.25;4442729;32;20091;-69
2021/12/19 04:03:45;;;;;;;149.75;14.40;;;;;;;11.73;46.42;102842.59;4446249;32;20037;-69
2021/12/19 04:06:11;;;;;;;157.50;14.87;;;;;;;11.69;46.73;102838.97;4446250;32;20279;-69
2021/12/19 04:08:36;;;;;;;94.43;12.98;;;;;;;11.71;45.82;102830.09;4446123;32;20494;-69
2021/12/19 04:11:03;;;;;;;173.43;16.48;;;;;;;11.63;46.59;102831.28;4440359;32;20029;-69
2021/12/19 04:13:29;;;;;;;115.37;15.15;;;;;;;11.68;46.49;102831.72;4450640;32;20032;-69
2021/12/19 04:15:54;;;;;;;267.33;17.48;;;;;;;11.71;46.48;102833.75;4446037;32;20132;-69
2021/12/19 04:18:20;;;;;;;128.80;14.77;;;;;;;11.71;46.40;102832.91;4446542;32;20064;-69
2021/12/19 04:20:46;;;;;;;49.83;11.25;;;;;;;11.80;46.16;102833.37;4446337;32;20068;-69
2021/12/19 04:23:13;;;;;;;78.70;13.07;;;;;;;11.95;46.02;102829.41;4445963;32;20140;-69
2021/12/19 04:25:39;;;;;;;122.47;14.23;;;;;;;11.82;46.04;102839.44;4444059;32;20441;-68
2021/12/19 04:28:05;;;;;;;86.90;13.10;;;;;;;11.73;46.18;102830.53;4442561;32;20034;-69
2021/12/19 04:30:31;;;;;;;129.80;14.38;;;;;;;11.86;46.17;102837.44;4445937;32;20451;-69
2021/12/19 04:33:04;;;;;;;147.15;14.15;;;;;;;11.81;45.85;102835.78;4444316;32;20045;-69
2021/12/19 04:35:34;;;;;;;98.30;13.73;;;;;;;11.73;45.74;102827.72;4447892;32;20100;-68
2021/12/19 04:51:56;;;;;;;;;;;;;;;12.10;45.82;102831.06;4430557;32;20457;-69
2021/12/19 05:16:03;;;;;;;104.63;12.70;;;;;;;11.77;45.93;102805.94;4432130;32;20576;-69
2021/12/19 05:18:33;;;;;;;96.32;13.43;;;;;;;11.81;46.01;102804.75;4429620;32;20341;-69
2021/12/19 05:21:03;;;;;;;71.62;11.23;;;;;;;11.76;45.99;102804.34;4431897;32;20069;-69
2021/12/19 05:26:06;;;;;;;56.20;10.85;;;;;;;12.25;45.19;102798.03;3981425;32;15022078;-69
2021/12/19 05:28:32;;;;;;;135.10;12.50;;;;;;;12.25;45.19;102798.03;4433192;32;20068;-69
2021/12/19 05:30:58;;;;;;;96.68;11.77;;;;;;;11.72;45.44;102798.69;4436195;32;20080;-69
2021/12/19 05:33:24;;;;;;;110.82;12.57;;;;;;;11.62;45.70;102801.44;4431850;32;20077;-68
2021/12/19 05:46:56;;;;;;;50.10;10.13;;;;;;;11.69;45.94;102788.19;4433933;32;20029;-69
2021/12/19 05:49:22;;;;;;;35.10;9.95;;;;;;;11.52;46.09;102790.91;4431874;32;20489;-69
2021/12/19 05:51:48;;;;;;;43.67;9.43;;;;;;;11.44;45.92;102790.06;4432403;32;20102;-69
2021/12/19 05:54:14;;;;;;;53.97;10.50;;;;;;;11.44;45.76;102789.25;4430889;32;20037;-69
2021/12/19 05:56:41;;;;;;;57.50;10.95;;;;;;;11.44;45.68;102784.41;4432427;32;20179;-69
2021/12/19 05:59:08;;;;;;;54.10;10.10;;;;;;;11.29;46.33;102782.72;4430266;32;20030;-69
2021/12/19 06:01:35;;;;;;;39.30;10.18;;;;;;;11.13;46.48;102781.41;4428963;32;20069;-69
2021/12/19 06:04:01;;;;;;;26.30;9.25;;;;;;;11.17;46.77;102777.41;4430516;32;20068;-69
2021/12/19 06:06:27;;;;;;;23.33;8.93;;;;;;;11.07;46.70;102775.34;4435287;32;20518;-69
2021/12/19 06:08:54;;;;;;;29.45;9.15;;;;;;;11.12;46.64;102771.34;4430801;32;20080;-69
2021/12/19 06:11:20;;;;;;;22.25;8.73;;;;;;;11.05;46.64;102776.97;4430133;32;20084;-69
2021/12/19 06:13:45;;;;;;;27.50;9.43;;;;;;;10.71;47.00;102772.69;4431934;32;20052;-69
2021/12/19 06:16:11;;;;;;;33.95;10.13;;;;;;;10.64;46.88;102766.97;4430419;32;20382;-69
2021/12/19 06:18:37;;;;;;;48.50;9.90;;;;;;;10.66;47.09;102767.41;4431319;32;20098;-69
2021/12/19 06:21:04;;;;;;;45.58;10.88;;;;;;;10.61;47.22;102770.59;4429511;32;20033;-69
2021/12/19 06:23:29;;;;;;;34.45;9.40;;;;;;;10.63;46.96;102771.81;4430645;32;20073;-69
2021/12/19 06:25:56;;;;;;;34.67;11.35;;;;;;;10.53;47.09;102763.28;4429645;32;20076;-69
2021/12/19 06:28:22;;;;;;;43.80;10.25;;;;;;;10.34;47.52;102757.91;4433930;32;20048;-69
2021/12/19 06:30:48;;;;;;;41.90;10.93;;;;;;;10.54;47.45;102767.72;4429399;32;20032;-69
2021/12/19 06:33:15;;;;;;;42.03;10.60;;;;;;;10.62;47.24;102766.59;4428221;32;20371;-69
2021/12/19 06:35:41;;;;;;;31.83;10.77;;;;;;;10.59;47.20;102764.53;4427307;32;20046;-68
2021/12/19 06:38:07;;;;;;;40.97;10.52;;;;;;;10.58;47.22;102760.12;4424323;32;20030;-69
2021/12/19 06:40:35;;;;;;;36.85;10.25;;;;;;;10.55;47.19;102770.13;4422197;32;20369;-68
2021/12/19 06:43:01;;;;;;;26.17;9.40;;;;;;;10.73;47.15;102762.63;4420773;32;20514;-68
2021/12/19 06:45:27;;;;;;;28.02;11.12;;;;;;;10.63;47.00;102771.81;4424186;32;20030;-69
2021/12/19 06:47:53;;;;;;;25.33;10.70;;;;;;;10.67;46.96;102766.19;4422427;32;20077;-69
2021/12/19 06:50:20;;;;;;;23.98;9.90;;;;;;;10.58;46.85;102768.56;4417918;32;20047;-68
2021/12/19 06:52:47;;;;;;;26.70;10.13;;;;;;;10.65;47.10;102765.81;4424714;32;20056;-69
2021/12/19 06:55:15;;;;;;;53.00;35.33;;;;;;;10.47;47.35;102767.66;4418163;32;20060;-68
2021/12/19 06:57:42;;;;;;;24.23;13.38;;;;;;;10.54;47.36;102764.91;4421390;32;20088;-69
2021/12/19 07:00:13;;;;;;;25.62;10.60;;;;;;;10.44;47.63;102771.25;4422278;32;20041;-68
2021/12/19 07:02:39;;;;;;;28.15;10.63;;;;;;;10.59;47.54;102776.63;4423129;32;20094;-69
2021/12/19 07:05:05;;;;;;;23.67;9.95;;;;;;;10.40;47.89;102767.59;4419416;32;20674;-69
2021/12/19 07:07:31;;;;;;;27.73;11.25;;;;;;;10.45;48.19;102772.84;4419989;32;20045;-68
2021/12/19 07:09:58;;;;;;;26.00;10.90;;;;;;;10.38;48.22;102769.97;4418938;32;20053;-69
2021/12/19 07:12:26;;;;;;;30.50;10.27;;;;;;;10.61;48.11;102767.78;4421910;32;20164;-69
2021/12/19 07:14:54;;;;;;;29.08;10.68;;;;;;;10.77;47.74;102769.09;4419141;32;20149;-69
2021/12/19 07:17:20;;;;;;;33.90;10.32;;;;;;;10.89;47.50;102765.19;4422958;32;20091;-69
2021/12/19 07:19:45;;;;;;;24.92;10.07;;;;;;;10.85;47.63;102773.59;4421518;32;20037;-68
2021/12/19 07:22:12;;;;;;;24.67;9.95;;;;;;;10.99;47.22;102770.88;4420380;32;20050;-69
2021/12/19 07:24:38;;;;;;;24.80;10.13;;;;;;;11.18;47.21;102766.97;4418653;32;20081;-69
2021/12/19 07:27:04;;;;;;;22.95;9.52;;;;;;;11.23;46.98;102763.78;4420151;32;20467;-68
2021/12/19 07:29:31;;;;;;;28.42;8.68;;;;;;;11.36;46.51;102762.25;4419441;32;20541;-68
2021/12/19 07:31:57;;;;;;;22.70;10.52;;;;;;;11.34;46.53;102762.63;4419641;32;20072;-68
2021/12/19 07:34:30;;;;;;;22.45;9.82;;;;;;;11.53;46.29;102762.31;4420540;32;20101;-68
2021/12/19 07:36:57;;;;;;;25.30;9.80;;;;;;;11.51;46.08;102759.06;4419031;32;20038;-69
2021/12/19 07:39:37;;;;;;;34.08;9.88;;;;;;;11.54;46.05;102755.47;4414867;32;20096;-69
2021/12/19 07:42:07;;;;;;;30.75;11.25;;;;;;;11.74;46.08;102753.97;4418843;32;20046;-69
2021/12/19 07:44:33;;;;;;;29.55;12.27;;;;;;;11.85;45.85;102754.78;4421540;32;20142;-69
2021/12/19 07:47:00;;;;;;;45.53;12.55;;;;;;;11.78;46.38;102751.94;4420633;32;20145;-69
2021/12/19 07:49:25;;;;;;;52.30;13.00;;;;;;;11.72;46.08;102759.19;4416696;32;20057;-68
2021/12/19 07:51:51;;;;;;;73.30;13.62;;;;;;;11.87;46.06;102760.84;4417544;32;20562;-69
2021/12/19 07:54:17;;;;;;;61.83;13.55;;;;;;;11.77;45.96;102763.62;4419292;32;20033;-69
2021/12/19 07:56:43;;;;;;;85.78;14.43;;;;;;;11.73;45.96;102763.62;4419703;32;21488;-68
2021/12/19 07:59:09;;;;;;;75.40;12.63;;;;;;;11.72;45.66;102766.84;4418285;32;20173;-69
2021/12/19 08:01:35;;;;;;;73.97;13.55;;;;;;;11.77;45.82;102769.28;4419232;32;20095;-69
2021/12/19 08:04:00;;;;;;;65.95;14.32;;;;;;;11.79;46.04;102767.66;4418501;32;20022;-68
2021/12/19 08:06:26;;;;;;;150.40;14.00;;;;;;;11.88;46.05;102781.41;4423139;32;20117;-69
2021/12/19 08:08:55;;;;;;;75.65;13.35;;;;;;;11.71;46.32;102771.69;4418412;32;20389;-68
2021/12/19 08:11:52;;;;;;;74.25;13.30;;;;;;;11.77;46.14;102777.75;4416701;32;20212;-68
2021/12/19 08:14:13;;;;;;;73.47;14.05;;;;;;;11.88;46.31;102776.56;4418191;32;20115;-68
2021/12/19 08:16:40;;;;;;;121.47;13.65;;;;;;;11.98;46.04;102777.81;4418199;32;20435;-68
2021/12/19 08:19:07;;;;;;;99.25;12.82;;;;;;;11.86;45.95;102778.19;4418502;32;20018;-68
2021/12/19 08:21:32;;;;;;;74.12;13.88;;;;;;;11.60;46.35;102779.25;4420738;32;20056;-68
2021/12/19 08:24:01;;;;;;;77.55;12.90;;;;;;;11.83;46.52;102785.44;4418451;32;20101;-68
2021/12/19 08:26:29;;;;;;;65.18;13.15;;;;;;;11.99;46.30;102776.59;4417765;32;20143;-68
2021/12/19 08:28:55;;;;;;;53.63;13.73;;;;;;;11.98;45.78;102794.75;4418135;32;20148;-68
2021/12/19 08:31:21;;;;;;;83.25;15.25;;;;;;;11.85;46.37;102785.03;4419189;32;20042;-69
2021/12/19 08:33:48;;;;;;;73.35;12.65;;;;;;;11.90;46.62;102791.09;4420570;32;20061;-68
2021/12/19 08:36:14;;;;;;;91.50;11.82;;;;;;;11.95;46.13;102785.06;4420953;32;20169;-67
2021/12/19 08:38:40;;;;;;;92.15;12.25;;;;;;;12.09;46.06;102782.28;4415951;32;21099;-68
2021/12/19 08:41:06;;;;;;;77.75;12.77;;;;;;;11.97;45.54;102784.66;4418763;32;20031;-68
2021/12/19 08:43:32;;;;;;;79.03;11.73;;;;;;;11.92;45.27;102779.41;4420056;32;20533;-68
2021/12/19 08:45:58;;;;;;;60.20;11.38;;;;;;;12.01;45.94;102782.66;4418945;32;20048;-68
2021/12/19 08:48:24;;;;;;;48.70;11.68;;;;;;;12.09;45.96;102787.13;4422375;32;20485;-68
2021/12/19 08:50:50;;;;;;;40.33;10.07;;;;;;;12.11;46.03;102773.41;4416054;32;20115;-68
2021/12/19 08:53:17;;;;;;;36.30;10.05;;;;;;;12.23;45.88;102775.84;4418257;32;20057;-68
2021/12/19 08:55:43;;;;;;;45.85;11.12;;;;;;;12.20;45.81;102773.81;4420294;32;20237;-68
2021/12/19 08:58:10;;;;;;;60.85;11.45;;;;;;;12.25;45.18;102779.09;4418216;32;20043;-68
2021/12/19 09:00:36;;;;;;;81.93;10.00;;;;;;;12.32;45.52;102781.09;4416125;32;20431;-68
2021/12/19 09:03:02;;;;;;;55.90;10.15;;;;;;;11.28;46.82;102788.75;4421189;32;20135;-68
2021/12/19 09:05:29;;;;;;;52.72;10.45;;;;;;;11.78;46.18;102785.81;4420121;32;20445;-68
2021/12/19 09:07:55;;;;;;;47.50;9.57;;;;;;;11.97;45.70;102781.84;4420231;32;20059;-68
2021/12/19 09:10:22;;;;;;;37.95;10.57;;;;;;;11.86;46.71;102792.28;4414566;32;20133;-68
2021/12/19 09:12:49;;;;;;;49.05;10.70;;;;;;;12.12;46.17;102783.47;4418645;32;20017;-68
2021/12/19 09:15:15;;;;;;;66.93;10.60;;;;;;;12.04;46.41;102798.78;4419815;32;20080;-68
2021/12/19 09:17:40;;;;;;;42.03;11.25;;;;;;;12.04;46.41;102788.31;4419135;32;20341;-68
2021/12/19 09:20:08;;;;;;;54.85;11.77;;;;;;;12.08;46.44;102793.97;4415837;32;20030;-68
2021/12/19 09:22:34;;;;;;;88.35;13.20;;;;;;;12.45;46.06;102800.06;4419310;32;20049;-68
2021/12/19 09:25:00;;;;;;;85.75;12.55;;;;;;;12.22;46.53;102796.00;4419052;32;20760;-68
2021/12/19 09:27:26;;;;;;;63.87;12.10;;;;;;;11.92;46.34;102804.81;4421667;32;20107;-68
2021/12/19 09:29:52;;;;;;;62.00;11.12;;;;;;;12.19;46.45;102794.81;4417941;32;20064;-68
2021/12/19 09:32:18;;;;;;;82.68;11.40;;;;;;;12.46;45.43;102798.06;4420502;32;20103;-69
2021/12/19 09:34:44;;;;;;;42.17;11.00;;;;;;;12.44;46.09;102792.81;4420826;32;20022;-68
2021/12/19 09:37:09;;;;;;;50.67;9.75;;;;;;;12.55;45.82;102799.25;4415853;32;20703;-68
2021/12/19 09:39:35;;;;;;;47.67;9.90;;;;;;;12.33;46.07;102808.94;4420390;32;20061;-68
2021/12/19 09:42:09;;;;;;;52.30;11.10;;;;;;;12.39;45.73;102798.84;4415038;32;20433;-68
2021/12/19 09:44:36;;;;;;;48.20;10.77;;;;;;;12.65;45.15;102792.00;4419838;32;20083;-68
2021/12/19 09:47:04;;;;;;;59.40;11.68;;;;;;;12.45;45.94;102797.25;4416809;32;20062;-68
2021/12/19 09:49:30;;;;;;;45.28;12.37;;;;;;;12.09;45.81;102793.56;4417144;32;20060;-68
2021/12/19 09:51:56;;;;;;;31.35;9.60;;;;;;;12.26;45.96;102805.28;4417894;32;20418;-68
2021/12/19 09:54:22;;;;;;;35.88;9.73;;;;;;;12.30;45.91;102801.25;4417803;32;20576;-68
2021/12/19 09:56:49;;;;;;;23.67;9.23;;;;;;;11.94;45.85;102797.53;4420008;32;20494;-68
2021/12/19 09:59:17;;;;;;;25.85;10.55;;;;;;;12.26;45.99;102797.62;4420325;32;20081;-68
2021/12/19 10:01:45;;;;;;;24.85;10.35;;;;;;;12.69;45.53;102796.47;4417156;32;20476;-68
2021/12/19 10:10:12;;;;;;;26.58;10.85;;;;;;;13.82;43.38;102812.00;3982837;32;15028948;-69
2021/12/19 10:12:49;;;;;;;24.48;10.43;;;;;;;13.82;43.38;102812.00;4434157;32;20430;-69
2021/12/19 10:15:19;;;;;;;21.20;9.38;;;;;;;13.37;43.86;102798.81;4437870;32;20077;-68
2021/12/19 10:17:46;;;;;;;28.58;10.45;;;;;;;13.54;43.96;102795.13;4437776;32;20138;-69
2021/12/19 10:20:16;;;;;;;25.92;10.23;;;;;;;13.33;43.71;102797.22;4436262;32;20038;-69
2021/12/19 10:22:45;;;;;;;26.25;10.23;;;;;;;13.60;43.57;102801.16;4438546;32;20068;-69
2021/12/19 10:27:50;;;;;;;31.17;11.18;;;;;;;14.04;42.75;102796.50;3954210;32;15726431;-68
2021/12/19 10:32:59;;;;;;;45.58;10.18;;;;;;;13.96;42.82;102785.63;3982155;32;15022242;-69
2021/12/19 10:38:06;;;;;;;51.37;10.35;;;;;;;14.03;42.32;102774.28;3997594;31;15017564;-68
2021/12/19 10:40:33;;;;;;;35.67;11.70;;;;;;;14.03;42.32;102774.28;4454942;32;20072;-68
2021/12/19 10:43:04;;;;;;;39.78;11.05;;;;;;;13.78;43.68;102774.41;4438480;32;20495;-68
2021/12/19 10:45:34;;;;;;;29.60;10.07;;;;;;;13.96;43.46;102782.78;4454267;32;20245;-68
2021/12/19 10:53:36;;;;;;;52.28;11.88;;;;;;;14.04;42.91;102782.34;3981567;32;15022920;-69
2021/12/19 10:56:07;;;;;;;43.38;9.60;;;;;;;13.81;42.98;102786.94;4430731;32;20045;-69
2021/12/19 10:58:37;;;;;;;57.17;10.77;;;;;;;14.01;43.64;102777.53;4428958;32;20060;-69
2021/12/19 11:08:55;;;;;;;44.90;9.93;;;;;;;14.60;42.87;102775.50;3984638;32;15022422;-69
2021/12/19 11:14:27;;;;;;;57.45;9.38;;;;;;;14.70;41.93;102774.59;3984251;32;15025112;-69
2021/12/19 11:16:55;;;;;;;36.58;9.73;;;;;;;14.70;41.93;102774.59;4435240;32;20319;-67
2021/12/19 11:19:22;;;;;;;56.33;11.10;;;;;;;14.18;43.05;102761.66;4438791;32;20045;-67
2021/12/19 11:21:48;;;;;;;49.97;11.30;;;;;;;14.27;43.19;102767.69;4436078;32;20080;-69
2021/12/19 11:24:16;;;;;;;50.25;10.88;;;;;;;13.89;44.04;102763.03;4439077;32;20094;-69
2021/12/19 11:26:48;;;;;;;63.70;12.00;;;;;;;14.17;43.43;102765.69;4431248;32;20339;-69
2021/12/19 11:29:14;;;;;;;54.97;11.90;;;;;;;14.06;43.19;102759.28;4437433;32;20037;-69
2021/12/19 11:31:46;;;;;;;45.50;12.10;;;;;;;13.65;44.81;102753.44;4437054;32;20046;-69
2021/12/19 11:34:20;;;;;;;44.80;11.68;;;;;;;13.94;44.17;102754.88;4435620;32;20108;-69
2021/12/19 11:39:34;;;;;;;27.85;10.90;;;;;;;14.56;43.61;102752.06;3981739;32;15022694;-69
2021/12/19 11:42:10;;;;;;;54.92;11.55;;;;;;;14.56;43.61;102752.06;4432458;32;20094;-69
2021/12/19 11:52:52;;;;;;;34.15;11.70;;;;;;;14.89;42.97;102737.19;3982625;32;15024504;-68
2021/12/19 11:55:28;;;;;;;37.80;11.52;;;;;;;14.89;42.97;102737.19;4435039;32;20034;-68
2021/12/19 12:00:50;;;;;;;43.30;11.98;;;;;;;14.50;42.39;102727.41;3983667;32;15024616;-73
2021/12/19 12:09:09;;;;;;;33.55;13.07;;;;;;;15.29;41.58;102732.69;3953171;32;15026458;-69
2021/12/19 12:11:39;;;;;;;42.33;13.75;;;;;;;15.29;41.58;102732.69;4406462;32;20581;-69
2021/12/19 12:14:22;;;;;;;37.97;13.00;;;;;;;14.82;42.74;102725.13;4405750;32;20557;-69
2021/12/19 12:16:56;;;;;;;39.40;11.82;;;;;;;14.82;42.37;102730.78;4407970;32;20098;-69
2021/12/19 12:27:54;;;;;;;69.95;9.70;;;;;;;14.52;43.47;102717.31;3996613;31;15017622;-69
2021/12/19 12:33:07;;;;;;;23.10;8.38;;;;;;;14.75;43.99;102720.31;3980959;32;15022250;-69
2021/12/19 12:35:37;;;;;;;21.55;8.13;;;;;;;14.75;43.99;102720.31;4431311;32;20055;-69
2021/12/19 12:38:04;;;;;;;29.23;9.13;;;;;;;14.37;43.84;102707.31;4431576;32;20383;-69
2021/12/19 12:40:45;;;;;;;26.52;8.27;;;;;;;14.43;44.33;102699.16;4431890;32;20059;-69
2021/12/19 12:43:15;;;;;;;30.70;9.43;;;;;;;14.60;43.96;102706.72;4432073;32;20486;-69
2021/12/19 12:51:12;;;;;;;26.33;10.43;;;;;;;14.61;44.65;102703.47;3976850;32;15024491;-69
2021/12/19 12:53:45;;;;;;;24.27;8.93;;;;;;;14.61;44.65;102703.47;4430021;32;20037;-69
2021/12/19 12:56:15;;;;;;;23.15;9.73;;;;;;;14.32;45.05;102701.25;4422889;32;20112;-69
2021/12/19 12:58:46;;;;;;;23.15;9.45;;;;;;;13.77;45.82;102693.56;4432859;32;20076;-69
2021/12/19 13:01:14;;;;;;;20.73;8.68;;;;;;;14.36;45.17;102696.41;4425621;32;20088;-68
2021/12/19 13:04:13;;;;;;;17.62;7.10;;;;;;;14.15;45.46;102691.69;4429890;32;20507;-68
2021/12/19 13:14:53;;;;;;;20.70;7.15;;;;;;;14.86;43.40;102683.34;3982161;32;15025364;-69
2021/12/19 13:17:23;;;;;;;17.00;7.32;;;;;;;14.86;43.40;102683.34;4431824;32;20033;-69
2021/12/19 13:25:22;;;;;;;16.20;7.68;;;;;;;15.38;43.70;102676.28;3954146;32;15723595;-69
2021/12/19 13:27:53;;;;;;;17.10;7.80;;;;;;;15.38;43.70;102676.28;4432113;32;20073;-69
2021/12/19 13:33:05;;;;;;;19.70;8.05;;;;;;;15.43;43.35;102670.09;3998689;31;15017471;-69
2021/12/19 13:35:36;;;;;;;13.00;6.82;;;;;;;15.43;43.35;102670.09;4456551;32;20093;-69
2021/12/19 13:38:04;;;;;;;17.15;7.60;;;;;;;15.00;43.41;102663.34;4455130;32;20038;-69
2021/12/19 13:43:27;;;;;;;16.73;8.05;;;;;;;15.09;43.84;102660.78;3979672;32;15021766;-69
2021/12/19 13:48:32;;;;;;;12.93;6.07;;;;;;;15.39;42.78;102647.47;3954219;32;15724755;-69
2021/12/19 13:53:35;;;;;;;8.00;4.10;;;;;;;14.63;43.88;102644.31;4000579;31;15015571;-69
2021/12/19 13:56:05;;;;;;;7.57;4.20;;;;;;;14.64;43.64;102637.44;4462778;32;20127;-69